Time;durP1;ratioP1;P1;durP2;ratioP2;P2;SDS_P1;SDS_P2;PMS_P1;PMS_P2;Temp;Humidity;BMP_temperature;BMP_pressure;BME280_temperature;BME280_humidity;BME280_pressure;Samples;Min_cycle;Max_cycle;Signal;HPM_P1;HPM_P2
2021/01/25 00:00:52;;;;;;;5.42;3.45;;;;;;;6.78;86.08;99286.14;1802692;79;21183;-73
2021/01/25 00:03:19;;;;;;;5.37;3.27;;;;;;;6.76;86.08;99290.90;1794515;79;21183;-73
2021/01/25 00:05:47;;;;;;;4.20;3.30;;;;;;;6.73;86.03;99294.08;1795702;79;21194;-73
2021/01/25 00:08:17;;;;;;;4.83;3.27;;;;;;;6.70;86.06;99290.62;1805599;79;21187;-73
2021/01/25 00:10:46;;;;;;;4.70;3.12;;;;;;;6.69;86.08;99294.34;1786162;79;21473;-74
2021/01/25 00:13:17;;;;;;;5.10;3.50;;;;;;;6.68;86.05;99288.77;1790503;79;21207;-74
2021/01/25 00:15:49;;;;;;;5.33;3.47;;;;;;;6.68;86.10;99283.47;1795822;79;21261;-74
2021/01/25 00:18:18;;;;;;;5.05;3.60;;;;;;;6.70;86.10;99277.34;1782875;79;21180;-74
2021/01/25 00:20:46;;;;;;;5.40;3.52;;;;;;;6.73;86.08;99280.81;1788844;79;21017;-73
2021/01/25 00:23:14;;;;;;;5.17;3.42;;;;;;;6.74;86.07;99277.09;1789503;79;21166;-73
2021/01/25 00:25:43;;;;;;;5.27;3.47;;;;;;;6.78;86.02;99285.34;1668652;79;9999725;-74
2021/01/25 00:28:12;;;;;;;5.70;3.98;;;;;;;6.78;85.97;99280.83;1799676;79;21586;-74
2021/01/25 00:30:41;;;;;;;6.17;3.70;;;;;;;6.80;85.92;99285.33;1798679;77;21222;-74
2021/01/25 00:33:09;;;;;;;5.65;3.98;;;;;;;6.83;85.89;99284.55;1790328;79;21654;-74
2021/01/25 00:35:39;;;;;;;4.85;3.52;;;;;;;6.85;85.81;99290.40;1794749;79;22725;-74
2021/01/25 00:38:07;;;;;;;5.67;3.77;;;;;;;6.86;85.76;99288.00;1786536;79;21183;-74
2021/01/25 00:40:34;;;;;;;6.45;3.75;;;;;;;6.87;85.63;99288.26;1793717;79;21341;-75
2021/01/25 00:43:03;;;;;;;4.42;3.42;;;;;;;6.84;85.55;99288.25;1793820;79;21191;-75
2021/01/25 00:45:31;;;;;;;5.65;3.87;;;;;;;6.82;85.54;99283.75;1795745;79;21179;-75
2021/01/25 00:47:59;;;;;;;5.20;3.50;;;;;;;6.83;85.52;99277.91;1788948;79;21199;-75
2021/01/25 00:50:27;;;;;;;5.00;3.77;;;;;;;6.81;85.41;99279.48;1794261;79;21187;-74
2021/01/25 00:52:56;;;;;;;5.55;4.12;;;;;;;6.79;85.37;99273.12;1802385;79;21856;-74
2021/01/25 00:55:24;;;;;;;5.67;4.20;;;;;;;6.78;85.36;99262.25;1789504;79;21193;-74
2021/01/25 00:57:52;;;;;;;5.40;3.90;;;;;;;6.79;85.32;99263.84;1789138;79;21191;-74
2021/01/25 01:00:21;;;;;;;5.30;3.80;;;;;;;6.78;85.22;99254.83;1785766;79;21146;-73
2021/01/25 01:02:49;;;;;;;5.10;3.60;;;;;;;6.74;85.18;99255.86;1789243;79;21237;-75
2021/01/25 01:05:16;;;;;;;5.45;3.92;;;;;;;6.68;85.15;99250.30;1793911;79;21383;-74
2021/01/25 01:07:48;;;;;;;5.10;3.52;;;;;;;6.66;85.18;99253.73;1792856;79;21222;-75
2021/01/25 01:10:15;;;;;;;5.30;3.77;;;;;;;6.67;85.29;99249.22;1787299;79;27027;-74
2021/01/25 01:12:45;;;;;;;5.20;4.08;;;;;;;6.66;85.31;99252.94;1801219;79;21261;-75
2021/01/25 01:15:13;;;;;;;5.12;4.05;;;;;;;6.58;85.38;99248.42;1793074;79;21725;-75
2021/01/25 01:17:41;;;;;;;5.50;3.90;;;;;;;6.55;85.48;99252.92;1778880;79;22082;-73
2021/01/25 01:20:10;;;;;;;6.00;4.28;;;;;;;6.56;85.59;99260.34;1714755;83;21350;-74
2021/01/25 01:22:39;;;;;;;5.90;4.22;;;;;;;6.56;85.70;99263.80;1702307;82;21206;-75
2021/01/25 01:25:09;;;;;;;6.67;4.08;;;;;;;6.58;85.79;99255.56;1705401;82;21186;-74
2021/01/25 01:27:39;;;;;;;6.17;4.78;;;;;;;6.60;85.82;99254.78;1584809;83;10000466;-74
2021/01/25 01:30:08;;;;;;;5.17;4.00;;;;;;;6.61;85.86;99256.36;1697097;83;21954;-74
2021/01/25 01:32:36;;;;;;;5.75;4.05;;;;;;;6.63;85.93;99258.23;1699880;82;21446;-74
2021/01/25 01:35:07;;;;;;;6.00;4.17;;;;;;;6.64;85.92;99250.53;1706968;83;21205;-75
2021/01/25 01:37:35;;;;;;;5.78;4.42;;;;;;;6.65;85.89;99256.66;1697765;82;21194;-76
2021/01/25 01:40:08;;;;;;;5.80;4.22;;;;;;;6.66;85.92;99254.27;1689917;82;21278;-74
2021/01/25 01:42:37;;;;;;;6.20;4.35;;;;;;;6.68;85.89;99254.78;1696899;83;21643;-74
2021/01/25 01:45:06;;;;;;;6.45;4.80;;;;;;;6.69;85.90;99251.89;1704909;83;21185;-74
2021/01/25 01:47:38;;;;;;;6.97;4.90;;;;;;;6.70;85.84;99255.33;1706126;83;21206;-78
2021/01/25 01:50:07;;;;;;;8.25;4.95;;;;;;;6.69;85.77;99259.05;1709493;82;21162;-77
2021/01/25 01:52:37;;;;;;;7.42;4.60;;;;;;;6.67;85.71;99250.55;1702943;83;21460;-74
2021/01/25 01:55:05;;;;;;;8.13;5.20;;;;;;;6.64;85.64;99254.52;1705867;83;21492;-77
2021/01/25 01:57:35;;;;;;;9.13;5.62;;;;;;;6.62;85.62;99253.20;1701884;82;21305;-73
2021/01/25 02:00:07;;;;;;;7.85;5.12;;;;;;;6.60;85.65;99256.64;1694784;83;21201;-77
2021/01/25 02:02:45;;;;;;;7.05;5.12;;;;;;;6.57;85.63;99256.09;1695179;83;21773;-80
2021/01/25 02:05:13;;;;;;;8.25;5.47;;;;;;;6.56;85.64;99257.70;1697250;83;21397;-76
2021/01/25 02:07:43;;;;;;;7.03;5.45;;;;;;;6.55;85.64;99264.86;1708941;83;21244;-75
2021/01/25 02:10:12;;;;;;;8.40;6.05;;;;;;;6.55;85.64;99255.58;1706121;82;21206;-74
2021/01/25 02:12:40;;;;;;;10.48;5.50;;;;;;;6.56;85.66;99257.16;1709828;83;21332;-74
2021/01/25 02:15:10;;;;;;;9.18;5.80;;;;;;;6.55;85.64;99258.77;1708543;82;21469;-75
2021/01/25 02:17:38;;;;;;;11.25;5.92;;;;;;;6.54;85.69;99265.11;1712453;82;21220;-75
2021/01/25 02:20:17;;;;;;;8.48;6.35;;;;;;;6.52;85.69;99266.71;1702063;82;21168;-76
2021/01/25 02:23:12;;;;;;;11.00;6.50;;;;;;;6.51;85.73;99270.40;1699045;83;21273;-75
2021/01/25 02:26:06;;;;;;;8.13;6.05;;;;;;;6.48;85.74;99267.48;1700693;83;21202;-75
2021/01/25 02:28:36;;;;;;;9.98;6.40;;;;;;;6.43;85.76;99272.25;1711068;82;21642;-75
2021/01/25 02:31:10;;;;;;;10.50;6.42;;;;;;;6.40;85.83;99274.63;1716086;82;21399;-75
2021/01/25 02:33:48;;;;;;;9.68;6.30;;;;;;;6.37;85.91;99281.24;1715177;82;21185;-75
2021/01/25 02:36:18;;;;;;;9.80;6.22;;;;;;;6.37;85.95;99287.88;1705156;82;21187;-75
2021/01/25 02:38:50;;;;;;;11.43;6.78;;;;;;;6.35;85.99;99286.03;1710524;82;21188;-75
2021/01/25 02:41:23;;;;;;;9.03;6.37;;;;;;;6.33;86.02;99286.80;1704521;82;21175;-75
2021/01/25 02:43:59;;;;;;;9.27;6.77;;;;;;;6.38;86.06;99280.71;1767213;79;22050;-70
2021/01/25 02:46:27;;;;;;;10.00;6.97;;;;;;;6.33;86.07;99285.48;1724675;81;21152;-71
2021/01/25 02:48:55;;;;;;;11.97;6.22;;;;;;;6.30;86.04;99288.65;1752430;80;21294;-72
2021/01/25 02:51:23;;;;;;;10.98;6.42;;;;;;;6.28;86.10;99296.05;1725124;82;21193;-72
2021/01/25 02:53:51;;;;;;;8.48;5.97;;;;;;;6.24;86.12;99290.47;1747246;81;21563;-71
2021/01/25 02:56:19;;;;;;;9.85;6.05;;;;;;;6.21;86.14;99286.22;1756321;81;21675;-70
2021/01/25 02:58:46;;;;;;;8.28;6.25;;;;;;;6.20;86.19;99288.08;1753535;81;21159;-69
2021/01/25 03:01:14;;;;;;;8.50;6.35;;;;;;;6.18;86.24;99290.18;1754070;81;21679;-70
2021/01/25 03:03:42;;;;;;;8.78;6.42;;;;;;;6.17;86.27;99292.57;1738832;81;21712;-71
2021/01/25 03:06:11;;;;;;;9.83;6.10;;;;;;;6.18;86.33;99294.16;1742733;81;21659;-70
2021/01/25 03:08:39;;;;;;;9.93;6.33;;;;;;;6.14;86.38;99290.44;1747463;81;21160;-69
2021/01/25 03:11:08;;;;;;;9.58;6.40;;;;;;;6.14;86.46;99286.98;1764142;81;21096;-68
2021/01/25 03:13:36;;;;;;;8.03;6.30;;;;;;;6.13;86.51;99286.20;1751237;81;21194;-70
2021/01/25 03:16:08;;;;;;;9.55;6.15;;;;;;;6.14;86.52;99284.34;1746282;81;21231;-70
2021/01/25 03:18:35;;;;;;;8.40;5.83;;;;;;;6.16;86.57;99289.66;1749525;81;21191;-70
2021/01/25 03:21:04;;;;;;;8.23;6.08;;;;;;;6.19;86.56;99287.02;1752322;81;21501;-69
2021/01/25 03:23:31;;;;;;;10.10;6.67;;;;;;;6.20;86.61;99284.10;1740322;81;21196;-69
2021/01/25 03:25:59;;;;;;;9.45;6.08;;;;;;;6.21;86.62;99281.71;1752261;81;21192;-71
2021/01/25 03:28:27;;;;;;;9.28;6.17;;;;;;;6.20;86.57;99282.78;1746530;81;21155;-70
2021/01/25 03:30:54;;;;;;;8.30;6.00;;;;;;;6.20;86.57;99276.68;1757593;81;21195;-70
2021/01/25 03:33:23;;;;;;;8.40;6.17;;;;;;;6.17;86.53;99271.36;1755561;81;22212;-69
2021/01/25 03:35:51;;;;;;;9.60;6.42;;;;;;;6.16;86.57;99275.08;1743015;81;21528;-71
2021/01/25 03:38:18;;;;;;;10.20;6.53;;;;;;;6.15;86.62;99273.46;1745869;81;21381;-70
2021/01/25 03:40:46;;;;;;;11.05;6.58;;;;;;;6.20;86.71;99268.20;1747980;81;21179;-68
2021/01/25 03:43:14;;;;;;;8.58;6.47;;;;;;;6.20;86.71;99255.47;1740748;81;21123;-69
2021/01/25 03:45:44;;;;;;;8.95;6.78;;;;;;;6.23;86.80;99255.74;1743501;81;21155;-68
2021/01/25 03:48:12;;;;;;;9.58;6.75;;;;;;;6.26;86.85;99249.13;1748989;81;21200;-70
2021/01/25 03:50:40;;;;;;;10.08;7.05;;;;;;;6.28;86.91;99253.63;1737710;81;22363;-69
2021/01/25 03:53:08;;;;;;;8.20;5.92;;;;;;;6.27;86.88;99244.88;1746022;81;21202;-70
2021/01/25 03:55:35;;;;;;;10.05;6.35;;;;;;;6.24;86.88;99254.68;1741405;81;21198;-70
2021/01/25 03:58:03;;;;;;;9.75;6.65;;;;;;;6.19;86.90;99253.89;1746131;81;21319;-70
2021/01/25 04:00:31;;;;;;;11.50;7.22;;;;;;;6.12;87.01;99260.75;1764733;80;21162;-71
2021/01/25 04:02:58;;;;;;;10.68;7.15;;;;;;;6.10;87.20;99261.53;1750780;81;21388;-70
2021/01/25 04:05:27;;;;;;;9.13;6.72;;;;;;;6.13;87.34;99254.39;1744379;81;21108;-70
2021/01/25 04:07:54;;;;;;;9.78;7.25;;;;;;;6.15;87.43;99253.58;1743616;81;21175;-70
2021/01/25 04:10:22;;;;;;;9.75;7.03;;;;;;;6.18;87.48;99246.44;1752712;81;21640;-70
2021/01/25 04:12:50;;;;;;;9.55;7.10;;;;;;;6.20;87.52;99246.98;1742244;81;21116;-68
2021/01/25 04:15:18;;;;;;;10.30;7.30;;;;;;;6.23;87.60;99243.81;1767203;81;21453;-70
2021/01/25 04:17:46;;;;;;;10.10;6.20;;;;;;;6.28;87.62;99245.67;1756217;81;21740;-71
2021/01/25 04:20:15;;;;;;;10.55;7.37;;;;;;;6.32;87.64;99254.19;1748409;81;21481;-71
2021/01/25 04:22:43;;;;;;;9.38;6.67;;;;;;;6.35;87.57;99264.81;1739424;81;21606;-70
2021/01/25 04:25:11;;;;;;;9.03;6.03;;;;;;;6.36;87.49;99256.33;1745657;81;21202;-70
2021/01/25 04:27:39;;;;;;;8.90;6.58;;;;;;;6.37;87.45;99257.91;1760385;81;21390;-70
2021/01/25 04:30:09;;;;;;;8.30;6.35;;;;;;;6.34;87.35;99257.36;1743398;81;21183;-71
2021/01/25 04:32:39;;;;;;;9.18;6.58;;;;;;;6.35;87.32;99259.51;1740253;81;21191;-70
2021/01/25 04:35:11;;;;;;;8.58;6.22;;;;;;;6.36;87.29;99259.77;1764140;81;21626;-71
2021/01/25 04:37:40;;;;;;;8.95;6.40;;;;;;;6.38;87.17;99256.84;1748409;81;21216;-71
2021/01/25 04:40:09;;;;;;;7.62;5.92;;;;;;;6.37;87.11;99253.40;1751411;81;21201;-71
2021/01/25 04:42:39;;;;;;;8.00;6.08;;;;;;;6.32;86.94;99256.84;1756833;81;21191;-69
2021/01/25 04:45:10;;;;;;;8.10;6.10;;;;;;;6.24;86.90;99251.23;1743340;81;21199;-70
2021/01/25 04:47:45;;;;;;;7.78;5.50;;;;;;;6.16;86.87;99245.91;1750291;81;21187;-70
2021/01/25 04:50:18;;;;;;;7.65;5.83;;;;;;;6.10;86.85;99240.32;1750804;81;21198;-70
2021/01/25 04:52:46;;;;;;;7.40;5.17;;;;;;;6.03;86.86;99237.91;1745512;81;21381;-71
2021/01/25 04:55:17;;;;;;;7.47;5.65;;;;;;;5.97;86.86;99242.12;1740293;81;21242;-71
2021/01/25 04:57:45;;;;;;;8.75;5.65;;;;;;;5.92;86.91;99244.70;1751511;81;21251;-70
2021/01/25 05:00:16;;;;;;;7.40;5.22;;;;;;;5.92;87.02;99255.31;1748788;81;21327;-71
2021/01/25 05:02:43;;;;;;;7.78;5.50;;;;;;;5.93;87.07;99250.33;1762177;81;21199;-70
2021/01/25 05:05:12;;;;;;;6.70;4.92;;;;;;;5.94;87.09;99244.75;1749837;81;21673;-70
2021/01/25 05:07:40;;;;;;;7.37;5.15;;;;;;;5.96;87.10;99247.16;1773288;80;21308;-70
2021/01/25 05:10:10;;;;;;;7.10;5.30;;;;;;;5.98;87.10;99245.83;1750253;81;21151;-71
2021/01/25 05:12:50;;;;;;;7.83;5.62;;;;;;;6.00;87.06;99248.23;1755589;81;21175;-71
2021/01/25 05:15:26;;;;;;;6.47;4.62;;;;;;;5.98;87.00;99242.38;1746002;81;21655;-70
2021/01/25 05:17:55;;;;;;;6.40;5.03;;;;;;;5.96;87.01;99233.91;1744866;81;22287;-70
2021/01/25 05:20:28;;;;;;;6.55;4.60;;;;;;;5.88;86.93;99236.48;1750660;81;21148;-70
2021/01/25 05:22:57;;;;;;;7.42;5.20;;;;;;;5.77;86.97;99233.52;1740052;81;21196;-71
2021/01/25 05:25:30;;;;;;;6.75;4.60;;;;;;;5.67;87.06;99232.94;1754985;81;21190;-70
2021/01/25 05:27:58;;;;;;;7.08;4.78;;;;;;;5.62;87.21;99234.22;1739150;81;21658;-70
2021/01/25 05:30:28;;;;;;;6.85;5.05;;;;;;;5.55;87.31;99243.72;1744632;81;21395;-69
2021/01/25 05:32:58;;;;;;;6.62;4.92;;;;;;;5.52;87.48;99256.15;1753569;81;21469;-69
2021/01/25 05:35:28;;;;;;;6.83;5.10;;;;;;;5.55;87.63;99253.52;1792623;78;21638;-71
2021/01/25 05:38:04;;;;;;;6.67;4.50;;;;;;;5.58;87.72;99258.31;1798632;79;21190;-70
2021/01/25 05:40:34;;;;;;;7.92;5.45;;;;;;;5.60;87.80;99258.86;1787138;79;21281;-69
2021/01/25 05:43:14;;;;;;;7.62;5.17;;;;;;;5.56;87.83;99262.55;1807556;79;21353;-69
2021/01/25 05:45:41;;;;;;;6.87;5.08;;;;;;;5.58;87.99;99256.45;1788308;79;21183;-70
2021/01/25 05:48:13;;;;;;;7.55;5.50;;;;;;;5.64;88.04;99253.31;1782830;79;21602;-71
2021/01/25 05:50:43;;;;;;;7.28;4.83;;;;;;;5.69;88.02;99249.89;1789631;79;21736;-70
2021/01/25 05:53:12;;;;;;;6.97;4.80;;;;;;;5.71;87.98;99251.77;1782975;79;21570;-70
2021/01/25 05:55:43;;;;;;;6.95;4.80;;;;;;;5.71;87.94;99256.53;1786876;79;21710;-70
2021/01/25 05:58:11;;;;;;;5.60;4.12;;;;;;;5.71;87.91;99263.16;1805257;79;21258;-70
2021/01/25 06:00:39;;;;;;;7.35;5.20;;;;;;;5.73;87.90;99270.33;1793021;79;21159;-73
2021/01/25 06:03:06;;;;;;;7.75;5.22;;;;;;;5.73;87.83;99266.89;1795844;79;21147;-72
2021/01/25 06:05:40;;;;;;;7.05;4.90;;;;;;;5.76;87.80;99263.70;1794622;79;21725;-73
2021/01/25 06:08:23;;;;;;;6.12;4.60;;;;;;;5.80;87.73;99261.63;1788605;79;21443;-71
2021/01/25 06:11:18;;;;;;;;;;;;;;;5.77;87.55;99248.89;1795308;79;21174;-70
2021/01/25 06:14:11;;;;;;;7.22;4.87;;;;;;;5.72;87.45;99259.44;1796602;79;20275;-70
2021/01/25 06:16:39;;;;;;;7.03;4.90;;;;;;;5.67;87.44;99256.78;1781215;79;21571;-71
2021/01/25 06:19:08;;;;;;;6.75;4.90;;;;;;;5.60;87.42;99246.94;1802790;79;21198;-70
2021/01/25 06:21:40;;;;;;;7.42;4.87;;;;;;;5.52;87.45;99242.11;1796309;79;21440;-71
2021/01/25 06:24:10;;;;;;;6.17;4.15;;;;;;;5.47;87.49;99243.42;1783091;79;21708;-70
2021/01/25 06:26:38;;;;;;;6.97;4.80;;;;;;;5.43;87.62;99248.43;1803669;79;21642;-70
2021/01/25 06:29:08;;;;;;;6.30;4.70;;;;;;;5.43;87.71;99241.81;1788687;79;21155;-70
2021/01/25 06:31:40;;;;;;;6.55;4.62;;;;;;;5.44;87.74;99232.02;1791784;79;21155;-71
2021/01/25 06:34:10;;;;;;;7.72;5.40;;;;;;;5.44;87.81;99227.52;1793043;79;21237;-71
2021/01/25 06:36:41;;;;;;;6.75;4.90;;;;;;;5.47;87.81;99224.36;1791415;79;21155;-71
2021/01/25 06:39:09;;;;;;;8.10;5.40;;;;;;;5.48;87.83;99247.66;1795732;79;21175;-70
2021/01/25 06:41:41;;;;;;;7.72;4.65;;;;;;;5.51;87.93;99253.23;1793596;79;21107;-71
2021/01/25 06:44:10;;;;;;;6.78;4.92;;;;;;;5.57;87.93;99252.22;1799935;79;21127;-69
2021/01/25 06:46:40;;;;;;;6.25;4.10;;;;;;;5.61;87.90;99240.05;1799537;79;22355;-71
2021/01/25 06:49:09;;;;;;;6.70;4.67;;;;;;;5.64;87.82;99255.44;1780446;79;21113;-70
2021/01/25 06:51:45;;;;;;;6.78;4.60;;;;;;;5.66;87.81;99251.22;1790915;79;21199;-70
2021/01/25 06:54:13;;;;;;;6.05;4.22;;;;;;;5.70;87.77;99252.83;1764647;80;21174;-71
2021/01/25 06:56:58;;;;;;;6.75;4.50;;;;;;;5.73;87.65;99247.02;1790368;79;21219;-70
2021/01/25 06:59:30;;;;;;;6.58;4.85;;;;;;;5.68;87.55;99235.84;1805306;79;21356;-71
2021/01/25 07:01:57;;;;;;;8.60;5.15;;;;;;;5.64;87.54;99238.75;1792558;79;21443;-71
2021/01/25 07:04:29;;;;;;;6.12;4.28;;;;;;;5.65;87.51;99236.36;1791956;79;21131;-71
2021/01/25 07:06:57;;;;;;;8.10;5.50;;;;;;;5.69;87.49;99252.01;1792989;79;22107;-70
2021/01/25 07:09:33;;;;;;;8.53;5.30;;;;;;;5.72;87.45;99254.67;1780719;79;21171;-69
2021/01/25 07:12:03;;;;;;;8.45;5.40;;;;;;;5.76;87.40;99252.59;1763445;80;21364;-71
2021/01/25 07:14:32;;;;;;;7.00;5.25;;;;;;;5.83;87.33;99260.31;1739592;81;21131;-71
2021/01/25 07:17:00;;;;;;;7.50;5.25;;;;;;;5.88;87.22;99259.80;1762191;81;21156;-70
2021/01/25 07:19:29;;;;;;;8.03;5.53;;;;;;;5.92;87.03;99257.95;1771793;80;21697;-71
2021/01/25 07:21:56;;;;;;;6.90;4.97;;;;;;;5.90;86.80;99245.52;1746367;81;21175;-70
2021/01/25 07:24:26;;;;;;;7.20;5.33;;;;;;;5.87;86.73;99237.01;1755211;80;21839;-70
2021/01/25 07:26:58;;;;;;;7.85;5.30;;;;;;;5.88;86.65;99233.30;1760713;81;22127;-69
2021/01/25 07:29:27;;;;;;;6.58;4.97;;;;;;;5.90;86.57;99226.96;1758786;81;21659;-70
2021/01/25 07:31:56;;;;;;;6.72;5.20;;;;;;;5.88;86.35;99243.10;1746782;81;21187;-71
2021/01/25 07:34:31;;;;;;;8.25;5.95;;;;;;;5.87;86.37;99238.34;1748078;81;21191;-70
2021/01/25 07:36:59;;;;;;;9.65;6.40;;;;;;;5.91;86.35;99219.27;1742181;81;22389;-71
2021/01/25 07:39:27;;;;;;;7.42;5.55;;;;;;;5.95;86.21;99221.16;1768786;81;21199;-70
2021/01/25 07:41:56;;;;;;;8.45;6.10;;;;;;;6.00;86.08;99225.17;1706019;81;21227;-71
2021/01/25 07:44:24;;;;;;;7.97;5.97;;;;;;;6.05;86.04;99219.08;1753641;81;21148;-71
2021/01/25 07:46:53;;;;;;;8.80;6.65;;;;;;;6.11;85.95;99222.81;1755908;81;21220;-71
2021/01/25 07:49:27;;;;;;;7.87;6.25;;;;;;;6.20;85.83;99217.02;1738451;81;21474;-71
2021/01/25 07:51:55;;;;;;;9.55;7.03;;;;;;;6.29;85.70;99206.98;1747049;81;22609;-70
2021/01/25 07:54:27;;;;;;;9.08;6.83;;;;;;;6.39;85.50;99210.72;1749567;81;21187;-71
2021/01/25 07:56:59;;;;;;;10.45;8.08;;;;;;;6.42;85.26;99218.16;1713612;82;21215;-72
2021/01/25 07:59:33;;;;;;;10.82;7.62;;;;;;;6.44;84.94;99230.60;1746003;81;21262;-71
2021/01/25 08:02:09;;;;;;;9.30;7.30;;;;;;;6.45;84.76;99226.38;1752441;81;22358;-71
2021/01/25 08:04:40;;;;;;;9.15;7.35;;;;;;;6.45;84.58;99231.69;1747123;81;21293;-70
2021/01/25 08:07:08;;;;;;;8.80;7.05;;;;;;;6.47;84.36;99218.14;1740114;81;21199;-71
2021/01/25 08:09:38;;;;;;;10.00;7.03;;;;;;;6.46;84.18;99221.87;1740887;81;21170;-71
2021/01/25 08:12:07;;;;;;;12.95;7.90;;;;;;;6.48;84.03;99220.55;1741218;81;21591;-70
2021/01/25 08:14:54;;;;;;;11.18;8.55;;;;;;;6.46;83.83;99218.69;1752887;81;21368;-71
2021/01/25 08:17:25;;;;;;;11.65;8.98;;;;;;;6.43;83.58;99206.48;1753375;81;21690;-73
2021/01/25 08:20:10;;;;;;;12.93;8.90;;;;;;;6.34;83.51;99199.55;1747073;81;21231;-72
2021/01/25 08:23:05;;;;;;;11.53;8.53;;;;;;;6.33;83.56;99209.37;1750334;81;21211;-72
2021/01/25 08:25:33;;;;;;;12.20;8.60;;;;;;;6.36;83.57;99204.61;1755233;81;21242;-70
2021/01/25 08:28:10;;;;;;;12.07;8.13;;;;;;;6.39;83.45;99197.46;1750353;81;22365;-71
2021/01/25 08:33:34;;;;;;;12.73;9.17;;;;;;;6.43;83.44;99204.62;1825083;77;22623;-73
2021/01/25 08:36:07;;;;;;;13.13;9.83;;;;;;;6.43;83.40;99214.44;1791863;79;21131;-70
2021/01/25 08:38:43;;;;;;;13.83;10.65;;;;;;;6.48;83.19;99207.30;1768270;79;22893;-70
2021/01/25 08:41:32;;;;;;;13.18;10.25;;;;;;;6.43;82.94;99195.33;1770987;78;21187;-72
2021/01/25 08:44:02;;;;;;;16.55;10.70;;;;;;;6.36;82.84;99197.45;1803501;78;21258;-70
2021/01/25 08:46:34;;;;;;;14.07;10.50;;;;;;;6.32;82.82;99178.61;1805599;78;21665;-71
2021/01/25 08:49:15;;;;;;;14.00;9.30;;;;;;;6.24;82.70;99180.44;1801106;78;21124;-69
2021/01/25 08:52:04;;;;;;;14.15;10.10;;;;;;;6.20;82.80;99175.40;1798515;79;21466;-71
2021/01/25 08:54:39;;;;;;;16.20;11.33;;;;;;;6.16;82.85;99174.34;1806520;79;21659;-71
2021/01/25 08:57:19;;;;;;;14.43;10.05;;;;;;;6.17;82.99;99172.48;1796452;79;21214;-72
2021/01/25 08:59:47;;;;;;;14.40;10.10;;;;;;;6.21;83.04;99166.91;1791790;79;21155;-71
2021/01/25 09:02:22;;;;;;;14.93;11.05;;;;;;;6.25;83.10;99159.52;1802686;77;21180;-73
2021/01/25 09:04:51;;;;;;;14.98;11.12;;;;;;;6.27;83.11;99162.68;1800734;79;21453;-72
2021/01/25 09:07:22;;;;;;;14.58;10.08;;;;;;;6.31;83.19;99161.09;1802086;79;21203;-71
2021/01/25 09:09:51;;;;;;;17.37;11.73;;;;;;;6.34;83.22;99157.13;1788547;79;21654;-70
2021/01/25 09:12:22;;;;;;;16.25;11.18;;;;;;;6.33;83.21;99151.56;1803472;79;21191;-71
2021/01/25 09:14:49;;;;;;;15.75;10.18;;;;;;;6.35;83.36;99150.78;1789968;79;21183;-72
2021/01/25 09:17:17;;;;;;;18.52;11.78;;;;;;;6.40;83.42;99138.05;1786358;79;22394;-72
2021/01/25 09:19:45;;;;;;;15.03;10.72;;;;;;;6.44;83.45;99145.73;1802798;79;21666;-72
2021/01/25 09:22:13;;;;;;;17.57;12.07;;;;;;;6.47;83.51;99135.92;1793607;79;21151;-76
2021/01/25 09:24:41;;;;;;;16.82;11.65;;;;;;;6.53;83.47;99138.84;1807280;77;21151;-73
2021/01/25 09:27:09;;;;;;;15.18;10.72;;;;;;;6.58;83.42;99143.63;1790931;79;21147;-71
2021/01/25 09:29:38;;;;;;;16.73;11.68;;;;;;;6.61;83.34;99136.98;1797174;79;22026;-72
2021/01/25 09:32:07;;;;;;;18.05;11.25;;;;;;;6.63;83.25;99126.91;1807270;77;21242;-73
2021/01/25 09:34:35;;;;;;;13.68;9.50;;;;;;;6.67;83.21;99131.15;1798366;79;21548;-73
2021/01/25 09:37:07;;;;;;;14.13;9.83;;;;;;;6.68;83.09;99130.91;1790944;79;21218;-70
2021/01/25 09:39:34;;;;;;;14.55;9.43;;;;;;;6.69;83.09;99131.69;1803170;79;21253;-73
2021/01/25 09:42:04;;;;;;;14.70;10.08;;;;;;;6.72;82.96;99125.86;1802877;79;21513;-74
2021/01/25 09:44:34;;;;;;;15.45;10.23;;;;;;;6.77;82.95;99122.64;1795969;79;21210;-74
2021/01/25 09:47:03;;;;;;;13.30;9.23;;;;;;;6.84;82.78;99123.70;1801568;79;21491;-73
2021/01/25 09:49:31;;;;;;;14.45;9.75;;;;;;;6.91;82.72;99115.47;1798605;79;21143;-74
2021/01/25 09:52:00;;;;;;;13.58;9.18;;;;;;;7.01;82.58;99111.49;1805021;79;21206;-70
2021/01/25 09:54:28;;;;;;;12.33;8.20;;;;;;;7.04;82.21;99107.77;1801364;77;21348;-73
2021/01/25 09:56:56;;;;;;;12.78;9.05;;;;;;;7.05;82.06;99106.69;1795023;77;21694;-75
2021/01/25 09:59:26;;;;;;;12.10;8.58;;;;;;;7.08;81.88;99093.42;1794192;77;21118;-72
2021/01/25 10:01:54;;;;;;;12.68;9.28;;;;;;;7.16;81.83;99090.73;1798528;79;21064;-71
2021/01/25 10:04:22;;;;;;;13.98;8.33;;;;;;;7.13;81.50;99085.96;1800261;79;21161;-71
2021/01/25 10:06:50;;;;;;;13.28;8.73;;;;;;;7.05;81.38;99077.48;1796723;79;21273;-75
2021/01/25 10:09:18;;;;;;;11.90;8.08;;;;;;;7.03;81.46;99061.56;1798828;77;21246;-71
2021/01/25 10:11:46;;;;;;;11.43;7.33;;;;;;;7.02;81.40;99073.25;1801817;79;21788;-71
2021/01/25 10:14:14;;;;;;;11.38;7.70;;;;;;;7.01;81.48;99071.67;1796710;79;21556;-72
2021/01/25 10:16:42;;;;;;;12.28;8.55;;;;;;;7.01;81.49;99055.21;1798526;77;21673;-72
2021/01/25 10:19:10;;;;;;;11.28;7.75;;;;;;;7.02;81.40;99054.67;1804187;79;22275;-72
2021/01/25 10:21:37;;;;;;;13.60;8.20;;;;;;;7.02;81.38;99046.17;1796356;77;21737;-71
2021/01/25 10:24:07;;;;;;;11.30;7.22;;;;;;;6.98;81.37;99031.86;1798738;77;21147;-73
2021/01/25 10:26:34;;;;;;;11.50;7.75;;;;;;;6.91;81.52;99031.86;1800673;77;21214;-73
2021/01/25 10:29:02;;;;;;;8.25;5.97;;;;;;;6.88;81.67;99033.72;1802467;79;22748;-71
2021/01/25 10:31:29;;;;;;;10.53;6.60;;;;;;;6.88;81.74;99015.96;1789364;79;21646;-72
2021/01/25 10:33:57;;;;;;;10.00;6.50;;;;;;;6.87;81.81;99017.55;1792972;79;21182;-70
2021/01/25 10:36:26;;;;;;;10.23;6.92;;;;;;;6.90;81.95;99006.39;1806698;79;21651;-72
2021/01/25 10:38:54;;;;;;;9.95;6.55;;;;;;;6.91;82.00;99005.31;1809936;79;21191;-71
2021/01/25 10:41:21;;;;;;;10.08;6.45;;;;;;;6.91;82.03;99001.34;1812456;77;21626;-71
2021/01/25 10:43:49;;;;;;;10.00;6.45;;;;;;;6.88;82.09;98995.23;1802039;79;21408;-72
2021/01/25 10:46:18;;;;;;;11.38;6.60;;;;;;;6.83;82.25;98989.42;1809589;79;21202;-73
2021/01/25 10:48:46;;;;;;;9.15;6.03;;;;;;;6.80;82.42;98984.12;1799542;79;21214;-74
2021/01/25 10:51:16;;;;;;;8.83;6.30;;;;;;;6.85;82.57;98979.88;1781442;80;21122;-73
2021/01/25 10:53:44;;;;;;;12.20;6.53;;;;;;;6.85;82.62;98977.23;1803034;78;21305;-72
2021/01/25 10:56:14;;;;;;;12.85;7.15;;;;;;;6.85;82.71;98963.95;1804508;79;21336;-72
2021/01/25 10:58:44;;;;;;;11.83;7.28;;;;;;;6.84;82.79;98958.38;1807928;79;21164;-74
2021/01/25 11:01:14;;;;;;;14.38;7.70;;;;;;;6.86;82.87;98956.25;1771247;78;21213;-73
2021/01/25 11:03:42;;;;;;;13.45;7.25;;;;;;;6.85;82.89;98958.66;1785227;78;21818;-74
2021/01/25 11:06:17;;;;;;;11.55;8.05;;;;;;;6.80;82.96;98960.23;1818847;78;21702;-75
2021/01/25 11:08:50;;;;;;;12.00;7.45;;;;;;;6.77;83.09;98952.81;1771360;79;21174;-74
2021/01/25 11:11:20;;;;;;;10.82;7.22;;;;;;;6.76;83.18;98957.87;1776213;80;21201;-74
2021/01/25 11:13:48;;;;;;;12.58;7.75;;;;;;;6.74;83.30;98946.72;1807481;78;21188;-75
2021/01/25 11:16:16;;;;;;;12.75;8.25;;;;;;;6.74;83.44;98926.82;1806066;77;21234;-74
2021/01/25 11:18:44;;;;;;;13.03;8.08;;;;;;;6.74;83.51;98921.52;1801497;79;21155;-74
2021/01/25 11:21:12;;;;;;;13.48;8.78;;;;;;;6.77;83.62;98921.51;1794016;79;21237;-75
2021/01/25 11:23:40;;;;;;;13.75;8.88;;;;;;;6.80;83.65;98924.95;1813521;79;21709;-73
2021/01/25 11:26:10;;;;;;;13.20;9.68;;;;;;;6.80;83.66;98919.64;1798953;79;21170;-74
2021/01/25 11:28:37;;;;;;;17.00;9.95;;;;;;;6.78;83.68;98918.59;1805268;79;22699;-73
2021/01/25 11:31:07;;;;;;;14.23;9.80;;;;;;;6.75;83.72;98909.86;1791850;78;21222;-75
2021/01/25 11:33:35;;;;;;;15.48;9.75;;;;;;;6.72;83.81;98905.63;1803686;79;23063;-75
2021/01/25 11:36:05;;;;;;;16.48;10.40;;;;;;;6.66;83.88;98903.52;1804624;78;21695;-74
2021/01/25 11:38:35;;;;;;;14.65;9.53;;;;;;;6.62;84.03;98896.39;1796692;79;21995;-75
2021/01/25 11:41:04;;;;;;;14.55;10.08;;;;;;;6.57;84.12;98895.85;1805054;79;21159;-75
2021/01/25 11:43:31;;;;;;;13.95;10.10;;;;;;;6.54;84.26;98896.39;1803834;79;21630;-75
2021/01/25 11:45:59;;;;;;;16.30;10.88;;;;;;;6.51;84.38;98887.64;1790841;79;21360;-77
2021/01/25 11:48:27;;;;;;;14.50;9.80;;;;;;;6.46;84.46;98886.36;1801759;79;21178;-74
2021/01/25 11:50:55;;;;;;;15.43;10.80;;;;;;;6.42;84.64;98885.31;1789961;79;21182;-75
2021/01/25 11:53:23;;;;;;;14.07;9.68;;;;;;;6.37;84.78;98882.66;1802411;79;21398;-74
2021/01/25 11:55:50;;;;;;;14.83;9.53;;;;;;;6.29;84.97;98876.86;1803934;79;21757;-73